sensor_id;sensor_type;location;lat;lon;timestamp;pressure;altitude;pressure_sealevel;temperature;humidity
49945;BME280;35838;49.134;9.212;2023-03-01T00:01:21;100769.88;;;0.94;60.74
49945;BME280;35838;49.134;9.212;2023-03-01T00:02:55;100776.34;;;0.87;60.72
49945;BME280;35838;49.134;9.212;2023-03-01T00:04:29;100778.75;;;0.84;60.74
49945;BME280;35838;49.134;9.212;2023-03-01T00:06:03;100771.91;;;0.83;60.84
49945;BME280;35838;49.134;9.212;2023-03-01T00:07:37;100772.19;;;0.89;60.85
49945;BME280;35838;49.134;9.212;2023-03-01T00:09:11;100769.59;;;0.88;60.59
49945;BME280;35838;49.134;9.212;2023-03-01T00:10:42;100775.63;;;0.90;60.87
49945;BME280;35838;49.134;9.212;2023-03-01T00:12:15;100773.88;;;0.89;60.64
49945;BME280;35838;49.134;9.212;2023-03-01T00:13:50;100776.28;;;0.86;60.55
49945;BME280;35838;49.134;9.212;2023-03-01T00:15:21;100772.28;;;0.91;60.83
49945;BME280;35838;49.134;9.212;2023-03-01T00:16:57;100776.53;;;0.90;60.77
49945;BME280;35838;49.134;9.212;2023-03-01T00:18:31;100773.81;;;0.87;60.71
49945;BME280;35838;49.134;9.212;2023-03-01T00:20:05;100778.91;;;0.87;60.84
49945;BME280;35838;49.134;9.212;2023-03-01T00:21:40;100776.59;;;0.92;60.39
49945;BME280;35838;49.134;9.212;2023-03-01T00:23:14;100772.03;;;0.86;60.61
49945;BME280;35838;49.134;9.212;2023-03-01T00:24:45;100769.81;;;0.92;60.80
49945;BME280;35838;49.134;9.212;2023-03-01T00:26:19;100771.63;;;0.95;60.25
49945;BME280;35838;49.134;9.212;2023-03-01T00:27:53;100773.97;;;0.90;60.26
49945;BME280;35838;49.134;9.212;2023-03-01T00:29:27;100772.03;;;0.86;60.38
49945;BME280;35838;49.134;9.212;2023-03-01T00:31:02;100767.88;;;0.88;60.51
49945;BME280;35838;49.134;9.212;2023-03-01T00:32:39;100769.59;;;0.88;60.42
49945;BME280;35838;49.134;9.212;2023-03-01T00:34:12;100768.41;;;0.81;60.65
49945;BME280;35838;49.134;9.212;2023-03-01T00:35:46;100767.66;;;0.84;60.75
49945;BME280;35838;49.134;9.212;2023-03-01T00:37:19;100778.84;;;0.86;60.84
49945;BME280;35838;49.134;9.212;2023-03-01T00:38:53;100769.47;;;0.86;60.92
49945;BME280;35838;49.134;9.212;2023-03-01T00:40:27;100776.19;;;0.84;60.75
49945;BME280;35838;49.134;9.212;2023-03-01T00:42:01;100769.25;;;0.82;60.81
49945;BME280;35838;49.134;9.212;2023-03-01T00:43:34;100778.75;;;0.84;60.84
49945;BME280;35838;49.134;9.212;2023-03-01T00:45:08;100772.94;;;0.87;60.77
49945;BME280;35838;49.134;9.212;2023-03-01T00:46:43;100775.56;;;0.88;60.92
49945;BME280;35838;49.134;9.212;2023-03-01T00:48:19;100784.31;;;0.93;60.35
49945;BME280;35838;49.134;9.212;2023-03-01T00:49:50;100785.22;;;0.94;60.49
49945;BME280;35838;49.134;9.212;2023-03-01T00:51:25;100783.06;;;0.85;60.76
49945;BME280;35838;49.134;9.212;2023-03-01T00:52:59;100783.38;;;0.91;60.92
49945;BME280;35838;49.134;9.212;2023-03-01T00:54:30;100781.69;;;0.92;60.75
49945;BME280;35838;49.134;9.212;2023-03-01T00:56:04;100780.16;;;0.77;60.88
49945;BME280;35838;49.134;9.212;2023-03-01T00:57:38;100784.69;;;0.67;61.27
49945;BME280;35838;49.134;9.212;2023-03-01T00:59:12;100780.66;;;0.70;61.33
49945;BME280;35838;49.134;9.212;2023-03-01T01:00:45;100777.13;;;0.68;61.17
49945;BME280;35838;49.134;9.212;2023-03-01T01:02:16;100776.25;;;0.68;61.60
49945;BME280;35838;49.134;9.212;2023-03-01T01:03:53;100780.47;;;0.67;61.76
49945;BME280;35838;49.134;9.212;2023-03-01T01:05:27;100774.25;;;0.62;61.84
49945;BME280;35838;49.134;9.212;2023-03-01T01:07:01;100774.56;;;0.68;61.73
49945;BME280;35838;49.134;9.212;2023-03-01T01:08:36;100767.94;;;0.72;61.53
49945;BME280;35838;49.134;9.212;2023-03-01T01:10:07;100767.94;;;0.72;61.65
49945;BME280;35838;49.134;9.212;2023-03-01T01:11:48;100774.66;;;0.70;61.80
49945;BME280;35838;49.134;9.212;2023-03-01T01:13:22;100768.66;;;0.69;61.76
49945;BME280;35838;49.134;9.212;2023-03-01T01:14:53;100764.25;;;0.67;62.34
49945;BME280;35838;49.134;9.212;2023-03-01T01:16:27;100772.97;;;0.70;62.00
49945;BME280;35838;49.134;9.212;2023-03-01T01:18:01;100766.69;;;0.64;61.93
49945;BME280;35838;49.134;9.212;2023-03-01T01:19:35;100764.94;;;0.62;62.07
49945;BME280;35838;49.134;9.212;2023-03-01T01:21:09;100769.25;;;0.64;62.62
49945;BME280;35838;49.134;9.212;2023-03-01T01:22:40;100773.56;;;0.65;62.65
49945;BME280;35838;49.134;9.212;2023-03-01T01:24:14;100764.94;;;0.62;62.50
49945;BME280;35838;49.134;9.212;2023-03-01T01:25:48;100766.44;;;0.59;62.67
49945;BME280;35838;49.134;9.212;2023-03-01T01:27:19;100764.63;;;0.56;62.51
49945;BME280;35838;49.134;9.212;2023-03-01T01:28:53;100765.31;;;0.54;62.67
49945;BME280;35838;49.134;9.212;2023-03-01T01:30:27;100761.09;;;0.54;62.47
49945;BME280;35838;49.134;9.212;2023-03-01T01:31:58;100760.44;;;0.58;62.29
49945;BME280;35838;49.134;9.212;2023-03-01T01:33:32;100755.03;;;0.52;62.47
49945;BME280;35838;49.134;9.212;2023-03-01T01:35:06;100755.19;;;0.55;62.72
49945;BME280;35838;49.134;9.212;2023-03-01T01:36:39;100750.66;;;0.50;62.84
49945;BME280;35838;49.134;9.212;2023-03-01T01:38:10;100755.84;;;0.51;63.03
49945;BME280;35838;49.134;9.212;2023-03-01T01:39:44;100749.75;;;0.49;63.03
49945;BME280;35838;49.134;9.212;2023-03-01T01:41:18;100747.53;;;0.55;62.60
49945;BME280;35838;49.134;9.212;2023-03-01T01:42:52;100741.31;;;0.50;62.57
49945;BME280;35838;49.134;9.212;2023-03-01T01:44:26;100739.72;;;0.52;62.59
49945;BME280;35838;49.134;9.212;2023-03-01T01:46:00;100735.41;;;0.51;62.57
49945;BME280;35838;49.134;9.212;2023-03-01T01:47:34;100735.50;;;0.53;62.84
49945;BME280;35838;49.134;9.212;2023-03-01T01:49:10;100732.22;;;0.55;62.35
49945;BME280;35838;49.134;9.212;2023-03-01T01:50:51;100733.50;;;0.47;62.88
49945;BME280;35838;49.134;9.212;2023-03-01T01:52:29;100732.25;;;0.39;62.96
49945;BME280;35838;49.134;9.212;2023-03-01T01:54:06;100726.47;;;0.43;62.82
49945;BME280;35838;49.134;9.212;2023-03-01T01:55:42;100721.53;;;0.46;63.04
49945;BME280;35838;49.134;9.212;2023-03-01T01:57:14;100729.19;;;0.46;62.87
49945;BME280;35838;49.134;9.212;2023-03-01T01:58:48;100719.84;;;0.46;62.93
49945;BME280;35838;49.134;9.212;2023-03-01T02:00:21;100719.22;;;0.51;62.80
49945;BME280;35838;49.134;9.212;2023-03-01T02:01:55;100710.66;;;0.50;62.51
49945;BME280;35838;49.134;9.212;2023-03-01T02:03:31;100711.31;;;0.46;63.08
49945;BME280;35838;49.134;9.212;2023-03-01T02:05:09;100707.16;;;0.48;63.05
49945;BME280;35838;49.134;9.212;2023-03-01T02:06:49;100708.75;;;0.46;63.10
49945;BME280;35838;49.134;9.212;2023-03-01T02:08:26;100708.75;;;0.46;63.00
49945;BME280;35838;49.134;9.212;2023-03-01T02:09:57;100710.53;;;0.47;62.88
49945;BME280;35838;49.134;9.212;2023-03-01T02:11:31;100706.22;;;0.46;63.06
49945;BME280;35838;49.134;9.212;2023-03-01T02:13:08;100706.44;;;0.51;62.83
49945;BME280;35838;49.134;9.212;2023-03-01T02:14:39;100704.91;;;0.54;62.83
49945;BME280;35838;49.134;9.212;2023-03-01T02:16:13;100709.78;;;0.50;63.17
49945;BME280;35838;49.134;9.212;2023-03-01T02:17:45;100701.91;;;0.45;63.08
49945;BME280;35838;49.134;9.212;2023-03-01T02:19:21;100706.28;;;0.47;63.12
49945;BME280;35838;49.134;9.212;2023-03-01T02:21:04;100700.59;;;0.53;62.90
49945;BME280;35838;49.134;9.212;2023-03-01T02:22:40;100696.94;;;0.48;63.06
49945;BME280;35838;49.134;9.212;2023-03-01T02:24:19;100693.44;;;0.46;62.96
49945;BME280;35838;49.134;9.212;2023-03-01T02:25:58;100694.06;;;0.42;63.19
49945;BME280;35838;49.134;9.212;2023-03-01T02:27:36;100691.63;;;0.43;63.29
49945;BME280;35838;49.134;9.212;2023-03-01T02:29:11;100687.88;;;0.37;63.53
49945;BME280;35838;49.134;9.212;2023-03-01T02:30:47;100683.09;;;0.26;63.57
49945;BME280;35838;49.134;9.212;2023-03-01T02:32:33;100687.56;;;0.30;63.88
49945;BME280;35838;49.134;9.212;2023-03-01T02:34:08;100686.75;;;0.31;63.84
49945;BME280;35838;49.134;9.212;2023-03-01T02:35:39;100683.41;;;0.33;64.03
49945;BME280;35838;49.134;9.212;2023-03-01T02:37:15;100677.72;;;0.38;63.86
49945;BME280;35838;49.134;9.212;2023-03-01T02:38:56;100679.41;;;0.38;63.85
49945;BME280;35838;49.134;9.212;2023-03-01T02:40:27;100671.66;;;0.36;63.69
49945;BME280;35838;49.134;9.212;2023-03-01T02:42:02;100669.59;;;0.29;63.76
49945;BME280;35838;49.134;9.212;2023-03-01T02:43:37;100668.56;;;0.25;63.97
49945;BME280;35838;49.134;9.212;2023-03-01T02:45:11;100672.09;;;0.27;64.10
49945;BME280;35838;49.134;9.212;2023-03-01T02:46:46;100661.88;;;0.27;63.95
49945;BME280;35838;49.134;9.212;2023-03-01T02:48:21;100667.72;;;0.25;64.08
49945;BME280;35838;49.134;9.212;2023-03-01T02:49:52;100662.50;;;0.23;63.72
49945;BME280;35838;49.134;9.212;2023-03-01T02:51:32;100665.28;;;0.28;63.94
49945;BME280;35838;49.134;9.212;2023-03-01T02:53:08;100662.50;;;0.23;63.98
49945;BME280;35838;49.134;9.212;2023-03-01T02:54:46;100660.13;;;0.26;63.78
49945;BME280;35838;49.134;9.212;2023-03-01T02:56:19;100664.25;;;0.24;64.09
49945;BME280;35838;49.134;9.212;2023-03-01T02:57:53;100661.72;;;0.24;63.88
49945;BME280;35838;49.134;9.212;2023-03-01T02:59:29;100656.75;;;0.27;63.85
49945;BME280;35838;49.134;9.212;2023-03-01T03:01:04;100660.13;;;0.26;63.77
49945;BME280;35838;49.134;9.212;2023-03-01T03:02:39;100660.19;;;0.28;64.08
49945;BME280;35838;49.134;9.212;2023-03-01T03:04:14;100659.38;;;0.29;64.23
49945;BME280;35838;49.134;9.212;2023-03-01T03:05:47;100664.66;;;0.32;64.01
49945;BME280;35838;49.134;9.212;2023-03-01T03:07:21;100657.34;;;0.22;64.06
49945;BME280;35838;49.134;9.212;2023-03-01T03:08:52;100659.38;;;0.29;63.99
49945;BME280;35838;49.134;9.212;2023-03-01T03:10:26;100655.16;;;0.29;63.92
49945;BME280;35838;49.134;9.212;2023-03-01T03:12:00;100660.13;;;0.26;63.92
49945;BME280;35838;49.134;9.212;2023-03-01T03:13:34;100659.94;;;0.23;64.06
49945;BME280;35838;49.134;9.212;2023-03-01T03:15:06;100655.81;;;0.25;64.25
49945;BME280;35838;49.134;9.212;2023-03-01T03:16:43;100659.72;;;0.19;64.48
49945;BME280;35838;49.134;9.212;2023-03-01T03:18:17;100652.78;;;0.16;64.44
49945;BME280;35838;49.134;9.212;2023-03-01T03:19:51;100658.78;;;0.17;64.69
49945;BME280;35838;49.134;9.212;2023-03-01T03:21:24;100656.94;;;0.14;64.44
49945;BME280;35838;49.134;9.212;2023-03-01T03:22:58;100654.63;;;0.19;64.59
49945;BME280;35838;49.134;9.212;2023-03-01T03:24:31;100648.59;;;0.17;64.77
49945;BME280;35838;49.134;9.212;2023-03-01T03:26:08;100654.53;;;0.17;64.65
49945;BME280;35838;49.134;9.212;2023-03-01T03:27:46;100655.50;;;0.19;64.13
49945;BME280;35838;49.134;9.212;2023-03-01T03:29:20;100652.88;;;0.18;64.40
49945;BME280;35838;49.134;9.212;2023-03-01T03:30:53;100651.84;;;0.14;64.57
49945;BME280;35838;49.134;9.212;2023-03-01T03:32:27;100651.19;;;0.18;64.39
49945;BME280;35838;49.134;9.212;2023-03-01T03:34:01;100658.63;;;0.13;64.41
49945;BME280;35838;49.134;9.212;2023-03-01T03:35:38;100656.75;;;0.27;63.92
49945;BME280;35838;49.134;9.212;2023-03-01T03:37:11;100656.59;;;0.24;64.12
49945;BME280;35838;49.134;9.212;2023-03-01T03:38:57;100649.03;;;0.26;64.05
49945;BME280;35838;49.134;9.212;2023-03-01T03:40:32;100644.22;;;0.32;64.01
49945;BME280;35838;49.134;9.212;2023-03-01T03:42:06;100640.41;;;0.24;64.47
49945;BME280;35838;49.134;9.212;2023-03-01T03:43:40;100634.97;;;0.34;64.11
49945;BME280;35838;49.134;9.212;2023-03-01T03:45:13;100628.75;;;0.29;64.27
49945;BME280;35838;49.134;9.212;2023-03-01T03:46:46;100628.69;;;0.27;64.20
49945;BME280;35838;49.134;9.212;2023-03-01T03:48:23;100631.97;;;0.25;64.14
49945;BME280;35838;49.134;9.212;2023-03-01T03:49:56;100636.16;;;0.24;64.14
49945;BME280;35838;49.134;9.212;2023-03-01T03:51:30;100631.06;;;0.24;64.12
49945;BME280;35838;49.134;9.212;2023-03-01T03:53:05;100622.59;;;0.25;63.96
49945;BME280;35838;49.134;9.212;2023-03-01T03:54:37;100618.81;;;0.17;64.09
49945;BME280;35838;49.134;9.212;2023-03-01T03:56:10;100623.56;;;0.27;63.89
49945;BME280;35838;49.134;9.212;2023-03-01T03:57:45;100619.41;;;0.29;64.37
49945;BME280;35838;49.134;9.212;2023-03-01T03:59:21;100616.38;;;0.37;63.93
49945;BME280;35838;49.134;9.212;2023-03-01T04:00:56;100617.00;;;0.33;64.08
49945;BME280;35838;49.134;9.212;2023-03-01T04:02:27;100616.38;;;0.37;64.33
49945;BME280;35838;49.134;9.212;2023-03-01T04:04:03;100621.31;;;0.34;64.26
49945;BME280;35838;49.134;9.212;2023-03-01T04:05:38;100612.56;;;0.28;64.14
49945;BME280;35838;49.134;9.212;2023-03-01T04:07:09;100616.66;;;0.25;64.12
49945;BME280;35838;49.134;9.212;2023-03-01T04:08:43;100614.16;;;0.26;64.12
49945;BME280;35838;49.134;9.212;2023-03-01T04:10:17;100608.31;;;0.29;63.96
49945;BME280;35838;49.134;9.212;2023-03-01T04:11:48;100615.97;;;0.29;64.11
49945;BME280;35838;49.134;9.212;2023-03-01T04:13:22;100619.25;;;0.26;64.29
49945;BME280;35838;49.134;9.212;2023-03-01T04:14:55;100609.84;;;0.25;64.14
49945;BME280;35838;49.134;9.212;2023-03-01T04:16:29;100613.06;;;0.21;64.02
49945;BME280;35838;49.134;9.212;2023-03-01T04:18:03;100617.22;;;0.19;63.88
49945;BME280;35838;49.134;9.212;2023-03-01T04:19:36;100617.22;;;0.19;63.85
49945;BME280;35838;49.134;9.212;2023-03-01T04:21:10;100620.72;;;0.21;64.18
49945;BME280;35838;49.134;9.212;2023-03-01T04:22:41;100615.28;;;0.15;64.55
49945;BME280;35838;49.134;9.212;2023-03-01T04:24:17;100616.97;;;0.14;64.41
49945;BME280;35838;49.134;9.212;2023-03-01T04:25:51;100618.81;;;0.17;64.51
49945;BME280;35838;49.134;9.212;2023-03-01T04:27:25;100621.53;;;0.20;64.30
49945;BME280;35838;49.134;9.212;2023-03-01T04:28:59;100614.59;;;0.18;64.47
49945;BME280;35838;49.134;9.212;2023-03-01T04:30:32;100622.94;;;0.15;64.45
49945;BME280;35838;49.134;9.212;2023-03-01T04:32:06;100623.75;;;0.14;64.25
49945;BME280;35838;49.134;9.212;2023-03-01T04:33:39;100628.00;;;0.13;64.33
49945;BME280;35838;49.134;9.212;2023-03-01T04:35:16;100625.66;;;0.18;64.33
49945;BME280;35838;49.134;9.212;2023-03-01T04:36:47;100617.22;;;0.19;64.20
49945;BME280;35838;49.134;9.212;2023-03-01T04:38:21;100628.94;;;0.15;64.36
49945;BME280;35838;49.134;9.212;2023-03-01T04:39:54;100617.78;;;0.13;64.48
49945;BME280;35838;49.134;9.212;2023-03-01T04:41:28;100616.38;;;0.02;64.40
49945;BME280;35838;49.134;9.212;2023-03-01T04:43:02;100624.25;;;0.07;64.52
49945;BME280;35838;49.134;9.212;2023-03-01T04:44:35;100622.63;;;-0.09;64.67
49945;BME280;35838;49.134;9.212;2023-03-01T04:46:10;100615.91;;;-0.07;64.62
49945;BME280;35838;49.134;9.212;2023-03-01T04:47:45;100621.69;;;-0.28;64.82
49945;BME280;35838;49.134;9.212;2023-03-01T04:49:16;100615.63;;;-0.30;65.06
49945;BME280;35838;49.134;9.212;2023-03-01T04:50:52;100623.34;;;-0.28;65.31
49945;BME280;35838;49.134;9.212;2023-03-01T04:52:26;100623.34;;;-0.28;65.58
49945;BME280;35838;49.134;9.212;2023-03-01T04:53:59;100627.03;;;-0.23;65.66
49945;BME280;35838;49.134;9.212;2023-03-01T04:55:33;100626.94;;;-0.25;65.61
49945;BME280;35838;49.134;9.212;2023-03-01T04:57:07;100624.06;;;-0.31;65.90
49945;BME280;35838;49.134;9.212;2023-03-01T04:58:41;100623.03;;;-0.35;65.86
49945;BME280;35838;49.134;9.212;2023-03-01T05:00:15;100634.81;;;-0.37;65.95
49945;BME280;35838;49.134;9.212;2023-03-01T05:01:53;100628.53;;;-0.43;66.28
49945;BME280;35838;49.134;9.212;2023-03-01T05:03:27;100630.69;;;-0.51;66.27
49945;BME280;35838;49.134;9.212;2023-03-01T05:05:00;100625.91;;;-0.45;66.09
49945;BME280;35838;49.134;9.212;2023-03-01T05:08:10;100628.28;;;-0.48;66.23
49945;BME280;35838;49.134;9.212;2023-03-01T05:09:48;100624.25;;;-0.44;66.33
49945;BME280;35838;49.134;9.212;2023-03-01T05:11:21;100623.28;;;-0.46;66.23
49945;BME280;35838;49.134;9.212;2023-03-01T05:12:55;100633.56;;;-0.45;66.32
49945;BME280;35838;49.134;9.212;2023-03-01T05:14:28;100629.25;;;-0.46;66.48
49945;BME280;35838;49.134;9.212;2023-03-01T05:16:02;100634.53;;;-0.43;66.51
49945;BME280;35838;49.134;9.212;2023-03-01T05:17:36;100635.69;;;-0.53;66.27
49945;BME280;35838;49.134;9.212;2023-03-01T05:19:07;100627.50;;;-0.47;66.36
49945;BME280;35838;49.134;9.212;2023-03-01T05:20:45;100633.78;;;-0.57;66.03
49945;BME280;35838;49.134;9.212;2023-03-01T05:22:19;100627.34;;;-0.50;66.28
49945;BME280;35838;49.134;9.212;2023-03-01T05:23:53;100625.91;;;-0.45;66.54
49945;BME280;35838;49.134;9.212;2023-03-01T05:25:26;100628.44;;;-0.45;66.60
49945;BME280;35838;49.134;9.212;2023-03-01T05:26:58;100621.47;;;-0.49;66.35
49945;BME280;35838;49.134;9.212;2023-03-01T05:28:32;100620.72;;;-0.46;66.48
49945;BME280;35838;49.134;9.212;2023-03-01T05:30:06;100624.81;;;-0.50;66.03
49945;BME280;35838;49.134;9.212;2023-03-01T05:31:46;100625.28;;;-0.41;66.28
49945;BME280;35838;49.134;9.212;2023-03-01T05:33:20;100622.63;;;-0.42;66.13
49945;BME280;35838;49.134;9.212;2023-03-01T05:34:53;100624.00;;;-0.49;66.38
49945;BME280;35838;49.134;9.212;2023-03-01T05:36:27;100623.53;;;-0.42;66.35
49945;BME280;35838;49.134;9.212;2023-03-01T05:37:58;100620.06;;;-0.42;66.21
49945;BME280;35838;49.134;9.212;2023-03-01T05:39:34;100624.69;;;-0.35;66.03
49945;BME280;35838;49.134;9.212;2023-03-01T05:41:13;100620.78;;;-0.28;65.80
49945;BME280;35838;49.134;9.212;2023-03-01T05:42:48;100618.91;;;-0.33;66.10
49945;BME280;35838;49.134;9.212;2023-03-01T05:44:19;100611.72;;;-0.40;65.88
49945;BME280;35838;49.134;9.212;2023-03-01T05:45:53;100612.66;;;-0.38;65.92
49945;BME280;35838;49.134;9.212;2023-03-01T05:47:27;100615.63;;;-0.30;66.06
49945;BME280;35838;49.134;9.212;2023-03-01T05:49:02;100621.44;;;-0.33;65.95
49945;BME280;35838;49.134;9.212;2023-03-01T05:50:36;100618.09;;;-0.32;66.19
49945;BME280;35838;49.134;9.212;2023-03-01T05:52:10;100613.13;;;-0.28;66.31
49945;BME280;35838;49.134;9.212;2023-03-01T05:53:44;100617.28;;;-0.30;66.37
49945;BME280;35838;49.134;9.212;2023-03-01T05:55:20;100614.03;;;-0.28;65.98
49945;BME280;35838;49.134;9.212;2023-03-01T05:56:54;100614.72;;;-0.30;66.04
49945;BME280;35838;49.134;9.212;2023-03-01T05:58:27;100621.50;;;-0.31;65.89
49945;BME280;35838;49.134;9.212;2023-03-01T06:00:01;100620.66;;;-0.32;65.94
49945;BME280;35838;49.134;9.212;2023-03-01T06:01:32;100620.00;;;-0.27;66.11
49945;BME280;35838;49.134;9.212;2023-03-01T06:03:06;100616.66;;;-0.26;66.07
49945;BME280;35838;49.134;9.212;2023-03-01T06:04:42;100617.84;;;-0.20;65.97
49945;BME280;35838;49.134;9.212;2023-03-01T06:06:16;100625.28;;;-0.24;65.96
49945;BME280;35838;49.134;9.212;2023-03-01T06:07:49;100621.69;;;-0.28;66.05
49945;BME280;35838;49.134;9.212;2023-03-01T06:09:23;100623.69;;;-0.22;66.05
49945;BME280;35838;49.134;9.212;2023-03-01T06:10:59;100623.19;;;-0.15;65.39
49945;BME280;35838;49.134;9.212;2023-03-01T06:12:33;100630.84;;;-0.15;65.14
49945;BME280;35838;49.134;9.212;2023-03-01T06:14:05;100627.31;;;-0.17;65.53
49945;BME280;35838;49.134;9.212;2023-03-01T06:15:41;100621.31;;;-0.18;65.47
49945;BME280;35838;49.134;9.212;2023-03-01T06:17:14;100629.09;;;-0.16;65.39
49945;BME280;35838;49.134;9.212;2023-03-01T06:18:48;100624.13;;;-0.13;65.30
49945;BME280;35838;49.134;9.212;2023-03-01T06:20:22;100622.53;;;-0.11;65.42
49945;BME280;35838;49.134;9.212;2023-03-01T06:21:56;100623.41;;;-0.10;65.46
49945;BME280;35838;49.134;9.212;2023-03-01T06:23:29;100628.53;;;-0.10;65.04
49945;BME280;35838;49.134;9.212;2023-03-01T06:25:03;100625.06;;;-0.11;65.17
49945;BME280;35838;49.134;9.212;2023-03-01T06:26:40;100621.78;;;-0.08;64.95
49945;BME280;35838;49.134;9.212;2023-03-01T06:28:13;100627.78;;;-0.08;65.01
49945;BME280;35838;49.134;9.212;2023-03-01T06:29:47;100627.06;;;-0.05;65.14
49945;BME280;35838;49.134;9.212;2023-03-01T06:31:20;100624.94;;;-0.14;64.94
49945;BME280;35838;49.134;9.212;2023-03-01T06:32:54;100623.31;;;-0.12;65.05
49945;BME280;35838;49.134;9.212;2023-03-01T06:34:31;100620.06;;;-0.09;65.27
49945;BME280;35838;49.134;9.212;2023-03-01T06:36:06;100618.69;;;-0.03;65.24
49945;BME280;35838;49.134;9.212;2023-03-01T06:37:40;100612.78;;;-0.02;65.32
49945;BME280;35838;49.134;9.212;2023-03-01T06:39:14;100616.28;;;0.01;64.99
49945;BME280;35838;49.134;9.212;2023-03-01T06:40:51;100616.28;;;0.01;65.06
49945;BME280;35838;49.134;9.212;2023-03-01T06:42:27;100611.47;;;0.07;65.13
49945;BME280;35838;49.134;9.212;2023-03-01T06:44:01;100611.47;;;0.07;65.05
49945;BME280;35838;49.134;9.212;2023-03-01T06:45:35;100607.09;;;0.04;64.61
49945;BME280;35838;49.134;9.212;2023-03-01T06:47:09;100612.50;;;0.10;64.53
49945;BME280;35838;49.134;9.212;2023-03-01T06:48:43;100612.03;;;0.18;64.46
49945;BME280;35838;49.134;9.212;2023-03-01T06:50:17;100606.03;;;0.17;64.30
49945;BME280;35838;49.134;9.212;2023-03-01T06:51:51;100610.34;;;0.18;64.28
49945;BME280;35838;49.134;9.212;2023-03-01T06:53:24;100604.22;;;0.14;64.15
49945;BME280;35838;49.134;9.212;2023-03-01T06:54:58;100604.44;;;0.19;64.28
49945;BME280;35838;49.134;9.212;2023-03-01T06:56:32;100607.06;;;0.21;64.02
49945;BME280;35838;49.134;9.212;2023-03-01T06:58:08;100601.91;;;0.19;64.36
49945;BME280;35838;49.134;9.212;2023-03-01T06:59:42;100608.66;;;0.19;64.50
49945;BME280;35838;49.134;9.212;2023-03-01T07:01:16;100610.34;;;0.18;64.23
49945;BME280;35838;49.134;9.212;2023-03-01T07:02:49;100613.13;;;0.23;64.50
49945;BME280;35838;49.134;9.212;2023-03-01T07:04:23;100608.19;;;0.26;64.01
49945;BME280;35838;49.134;9.212;2023-03-01T07:05:59;100610.28;;;0.35;63.88
49945;BME280;35838;49.134;9.212;2023-03-01T07:07:32;100608.69;;;0.37;63.69
49945;BME280;35838;49.134;9.212;2023-03-01T07:09:06;100600.53;;;0.44;63.92
49945;BME280;35838;49.134;9.212;2023-03-01T07:10:39;100606.66;;;0.47;63.80
49945;BME280;35838;49.134;9.212;2023-03-01T07:12:13;100609.28;;;0.31;63.11
49945;BME280;35838;49.134;9.212;2023-03-01T07:13:49;100601.53;;;0.29;63.03
49945;BME280;35838;49.134;9.212;2023-03-01T07:15:23;100597.66;;;0.20;63.15
49945;BME280;35838;49.134;9.212;2023-03-01T07:16:56;100602.25;;;0.27;62.93
49945;BME280;35838;49.134;9.212;2023-03-01T07:18:30;100603.94;;;0.26;63.38
49945;BME280;35838;49.134;9.212;2023-03-01T07:20:04;100599.06;;;0.31;63.71
49945;BME280;35838;49.134;9.212;2023-03-01T07:21:38;100599.91;;;0.13;63.13
49945;BME280;35838;49.134;9.212;2023-03-01T07:23:11;100595.81;;;0.17;62.91
49945;BME280;35838;49.134;9.212;2023-03-01T07:24:45;100595.31;;;0.24;63.25
49945;BME280;35838;49.134;9.212;2023-03-01T07:26:19;100602.41;;;0.30;62.90
49945;BME280;35838;49.134;9.212;2023-03-01T07:27:53;100600.38;;;0.41;62.44
49945;BME280;35838;49.134;9.212;2023-03-01T07:29:29;100594.63;;;0.45;62.67
49945;BME280;35838;49.134;9.212;2023-03-01T07:31:02;100587.91;;;0.47;62.63
49945;BME280;35838;49.134;9.212;2023-03-01T07:32:37;100594.38;;;0.58;62.85
49945;BME280;35838;49.134;9.212;2023-03-01T07:34:11;100592.22;;;0.48;62.17
49945;BME280;35838;49.134;9.212;2023-03-01T07:35:45;100590.22;;;0.60;62.46
49945;BME280;35838;49.134;9.212;2023-03-01T07:37:19;100590.97;;;0.58;62.30
49945;BME280;35838;49.134;9.212;2023-03-01T07:38:52;100585.34;;;0.65;62.50
49945;BME280;35838;49.134;9.212;2023-03-01T07:40:26;100580.47;;;0.52;61.87
49945;BME280;35838;49.134;9.212;2023-03-01T07:41:59;100573.66;;;0.52;61.96
49945;BME280;35838;49.134;9.212;2023-03-01T07:43:33;100573.16;;;0.59;62.33
49945;BME280;35838;49.134;9.212;2023-03-01T07:45:10;100576.50;;;0.58;61.81
49945;BME280;35838;49.134;9.212;2023-03-01T07:46:44;100573.56;;;0.69;61.62
49945;BME280;35838;49.134;9.212;2023-03-01T07:48:17;100579.13;;;0.78;61.54
49945;BME280;35838;49.134;9.212;2023-03-01T07:49:51;100568.91;;;0.78;60.99
49945;BME280;35838;49.134;9.212;2023-03-01T07:51:25;100565.38;;;0.76;61.95
49945;BME280;35838;49.134;9.212;2023-03-01T07:52:58;100570.81;;;0.64;62.28
49945;BME280;35838;49.134;9.212;2023-03-01T07:54:33;100565.25;;;0.73;62.02
49945;BME280;35838;49.134;9.212;2023-03-01T07:56:07;100568.25;;;0.82;61.76
49945;BME280;35838;49.134;9.212;2023-03-01T07:57:41;100561.81;;;0.90;61.60
49945;BME280;35838;49.134;9.212;2023-03-01T07:59:15;100564.78;;;1.00;60.97
49945;BME280;35838;49.134;9.212;2023-03-01T08:00:51;100556.97;;;0.97;60.90
49945;BME280;35838;49.134;9.212;2023-03-01T08:02:25;100556.72;;;1.10;60.80
49945;BME280;35838;49.134;9.212;2023-03-01T08:03:58;100553.34;;;1.11;60.96
49945;BME280;35838;49.134;9.212;2023-03-01T08:05:32;100556.84;;;1.13;60.60
49945;BME280;35838;49.134;9.212;2023-03-01T08:07:06;100558.84;;;1.20;60.85
49945;BME280;35838;49.134;9.212;2023-03-01T08:08:39;100554.50;;;1.18;60.59
49945;BME280;35838;49.134;9.212;2023-03-01T08:10:13;100554.94;;;1.29;59.82
49945;BME280;35838;49.134;9.212;2023-03-01T08:11:46;100553.53;;;1.35;59.93
49945;BME280;35838;49.134;9.212;2023-03-01T08:13:20;100559.66;;;1.39;59.94
49945;BME280;35838;49.134;9.212;2023-03-01T08:14:54;100551.88;;;1.36;59.98
49945;BME280;35838;49.134;9.212;2023-03-01T08:16:30;100557.25;;;1.42;60.28
49945;BME280;35838;49.134;9.212;2023-03-01T08:18:04;100556.75;;;1.51;60.16
49945;BME280;35838;49.134;9.212;2023-03-01T08:19:37;100552.25;;;1.65;59.82